createdAt,value
2023-11-12T00:02:39.630Z,0.73
2023-11-12T00:07:42.496Z,1.55
2023-11-12T00:12:44.689Z,0.98
2023-11-12T00:17:47.398Z,1.75
2023-11-12T00:22:49.677Z,1.88
2023-11-12T00:27:52.065Z,1.50
2023-11-12T00:32:54.787Z,2.20
2023-11-12T00:37:57.122Z,2.30
2023-11-12T00:43:00.546Z,1.70
2023-11-12T00:48:03.029Z,2.50
2023-11-12T00:53:05.279Z,1.83
2023-11-12T00:58:07.624Z,1.35
2023-11-12T01:03:13.545Z,1.63
2023-11-12T01:08:15.872Z,1.73
2023-11-12T01:13:19.796Z,2.17
2023-11-12T01:18:22.518Z,2.88
2023-11-12T01:23:24.738Z,2.05
2023-11-12T01:28:31.192Z,2.28
2023-11-12T01:33:33.621Z,2.28
2023-11-12T01:38:35.880Z,1.35
2023-11-12T01:43:38.498Z,1.42
2023-11-12T01:48:41.152Z,2.67
2023-11-12T01:53:43.457Z,1.98
2023-11-12T01:58:46.395Z,1.48
2023-11-12T02:03:50.374Z,1.60
2023-11-12T02:08:52.746Z,2.15
2023-11-12T02:13:56.185Z,1.00
2023-11-12T02:18:58.453Z,2.13
2023-11-12T02:24:00.610Z,1.45
2023-11-12T02:29:02.818Z,1.48
2023-11-12T02:34:06.286Z,1.73
2023-11-12T02:39:13.698Z,1.40
2023-11-12T02:44:16.230Z,2.85
2023-11-12T02:49:28.296Z,0.63
2023-11-12T02:54:30.507Z,1.48
2023-11-12T02:59:32.884Z,1.23
2023-11-12T03:04:35.051Z,1.75
2023-11-12T03:09:37.305Z,3.05
2023-11-12T03:14:39.501Z,1.52
2023-11-12T03:19:41.849Z,1.65
2023-11-12T03:24:44.025Z,1.85
2023-11-12T03:29:46.298Z,2.05
2023-11-12T03:34:51.607Z,1.67
2023-11-12T03:39:53.807Z,2.05
2023-11-12T03:44:58.277Z,2.80
2023-11-12T03:50:00.737Z,1.75
2023-11-12T03:55:04.632Z,0.93
2023-11-12T04:00:08.515Z,1.73
2023-11-12T04:05:13.760Z,0.82
2023-11-12T04:10:16.027Z,1.20
2023-11-12T04:15:18.193Z,2.08
2023-11-12T04:20:20.693Z,1.48
2023-11-12T04:25:23.080Z,2.58
2023-11-12T04:30:25.332Z,1.10
2023-11-12T04:35:27.632Z,2.03
2023-11-12T04:40:29.783Z,2.33
2023-11-12T04:45:31.905Z,1.75
2023-11-12T04:50:34.420Z,1.88
2023-11-12T04:55:36.577Z,1.58
2023-11-12T05:00:41.713Z,1.15
2023-11-12T05:05:43.893Z,1.65
2023-11-12T05:10:46.280Z,2.80
2023-11-12T05:15:48.533Z,1.73
2023-11-12T05:20:50.683Z,2.63
2023-11-12T05:25:54.278Z,1.08
2023-11-12T05:30:57.193Z,1.30
2023-11-12T05:35:59.401Z,2.10
2023-11-12T05:41:02.023Z,1.50
2023-11-12T05:46:04.386Z,2.60
2023-11-12T05:51:07.252Z,2.70
2023-11-12T05:56:10.073Z,5.55
2023-11-12T06:01:13.529Z,2.15
2023-11-12T06:06:16.188Z,3.25
2023-11-12T06:11:18.311Z,3.88
2023-11-12T06:16:20.705Z,4.70
2023-11-12T06:21:22.968Z,2.63
2023-11-12T06:26:25.041Z,5.85
2023-11-12T06:31:27.648Z,1.90
2023-11-12T06:36:29.761Z,4.43
2023-11-12T06:41:32.101Z,3.53
2023-11-12T06:46:34.280Z,3.13
2023-11-12T06:51:36.385Z,6.05
2023-11-12T06:56:38.587Z,5.82
2023-11-12T07:01:40.827Z,4.75
2023-11-12T07:06:50.418Z,4.32
2023-11-12T07:11:59.348Z,6.78
2023-11-12T07:17:01.538Z,5.18
2023-11-12T07:22:03.758Z,4.32
2023-11-12T07:27:05.934Z,4.78
2023-11-12T07:32:08.119Z,7.63
2023-11-12T07:37:10.244Z,4.32
2023-11-12T07:42:12.481Z,4.85
2023-11-12T07:47:14.846Z,3.28
2023-11-12T07:52:16.929Z,7.40
2023-11-12T07:57:19.689Z,4.53
2023-11-12T08:02:23.500Z,6.68
2023-11-12T08:07:25.646Z,2.65
2023-11-12T08:12:27.738Z,8.88
2023-11-12T08:17:29.937Z,5.63
2023-11-12T08:22:32.951Z,9.02
2023-11-12T08:27:35.967Z,6.35
2023-11-12T08:32:38.494Z,5.10
2023-11-12T08:37:42.124Z,3.97
2023-11-12T08:42:44.380Z,6.88
2023-11-12T08:47:47.138Z,7.00
2023-11-12T08:52:49.360Z,4.30
2023-11-12T08:57:51.558Z,4.53
2023-11-12T09:02:54.137Z,6.00
2023-11-12T09:07:56.238Z,5.47
2023-11-12T09:12:58.774Z,4.40
2023-11-12T09:18:02.560Z,5.13
2023-11-12T09:23:04.820Z,4.45
2023-11-12T09:28:10.163Z,3.80
2023-11-12T09:33:13.820Z,3.53
2023-11-12T09:43:18.595Z,4.28
2023-11-12T09:48:41.120Z,4.82
2023-11-12T09:53:48.721Z,3.65
2023-11-12T09:58:50.968Z,4.15
2023-11-12T10:03:53.521Z,5.28
2023-11-12T10:08:55.828Z,4.93
2023-11-12T10:13:58.077Z,4.47
2023-11-12T10:19:17.082Z,5.10
2023-11-12T10:24:21.386Z,3.55
2023-11-12T10:29:25.114Z,3.03
2023-11-12T10:34:28.899Z,7.00
2023-11-12T10:39:42.887Z,3.90
2023-11-12T10:44:46.318Z,3.83
2023-11-12T10:49:49.146Z,3.55
2023-11-12T10:54:59.728Z,4.82
2023-11-12T11:00:06.901Z,4.13
2023-11-12T11:05:09.416Z,2.83
2023-11-12T11:10:12.528Z,4.40
2023-11-12T11:15:49.555Z,3.20
2023-11-12T11:21:07.250Z,2.70
2023-11-12T11:26:28.291Z,3.95
2023-11-12T11:31:30.474Z,4.80
2023-11-12T11:36:33.463Z,3.83
2023-11-12T11:41:36.608Z,3.13
2023-11-12T11:47:17.540Z,4.18
2023-11-12T11:52:27.708Z,3.10
2023-11-12T11:57:30.957Z,3.13
2023-11-12T12:02:46.687Z,4.68
2023-11-12T12:13:02.166Z,4.65
2023-11-12T12:18:21.231Z,3.00
2023-11-12T12:23:23.605Z,2.13
2023-11-12T12:28:30.665Z,3.50
2023-11-12T12:33:33.977Z,4.47
2023-11-12T12:38:37.938Z,5.20
2023-11-12T12:43:52.126Z,4.63
2023-11-12T12:48:57.098Z,4.28
2023-11-12T12:53:59.966Z,5.18
2023-11-12T12:59:02.422Z,3.67
2023-11-12T13:04:04.718Z,4.82
2023-11-12T13:09:27.722Z,4.53
2023-11-12T13:14:29.910Z,4.47
2023-11-12T13:19:33.652Z,3.67
2023-11-12T13:29:38.059Z,3.63
2023-11-12T13:34:40.272Z,2.85
2023-11-12T13:39:43.575Z,4.45
2023-11-12T13:44:47.442Z,4.07
2023-11-12T13:54:51.587Z,5.45
2023-11-12T13:59:55.406Z,3.70
2023-11-12T14:09:59.592Z,2.90
2023-11-12T14:15:02.116Z,3.88
2023-11-12T14:20:08.010Z,1.40
2023-11-12T14:25:15.040Z,1.60
2023-11-12T14:30:20.807Z,3.17
2023-11-12T14:35:24.061Z,2.67
2023-11-12T14:40:28.278Z,1.90
2023-11-12T14:45:31.446Z,2.40
2023-11-12T14:50:34.085Z,3.65
2023-11-12T14:55:38.348Z,2.25
2023-11-12T15:00:41.344Z,1.70
2023-11-12T15:05:43.602Z,2.15
2023-11-12T15:10:45.770Z,3.33
2023-11-12T15:15:48.783Z,1.35
2023-11-12T15:20:50.889Z,4.47
2023-11-12T15:25:53.053Z,0.68
2023-11-12T15:30:55.439Z,2.47
2023-11-12T15:35:57.617Z,2.25
2023-11-12T15:41:00.296Z,4.30
2023-11-12T15:46:06.138Z,1.92
2023-11-12T15:51:08.478Z,0.90
2023-11-12T15:56:10.733Z,3.17
2023-11-12T16:01:13.050Z,1.80
2023-11-12T16:06:16.804Z,1.10
2023-11-12T16:16:20.956Z,2.65
2023-11-12T16:21:23.420Z,2.10
2023-11-12T16:26:25.800Z,3.10
2023-11-12T16:31:29.266Z,2.28
2023-11-12T16:36:31.450Z,2.00
2023-11-12T16:41:33.871Z,1.50
2023-11-12T16:46:36.006Z,1.25
2023-11-12T16:51:38.103Z,2.53
2023-11-12T16:56:40.244Z,1.77
2023-11-12T17:01:45.895Z,1.35
2023-11-12T17:06:49.619Z,2.05
2023-11-12T17:11:51.854Z,1.65
2023-11-12T17:16:55.881Z,2.05
2023-11-12T17:21:58.244Z,3.13
2023-11-12T17:27:00.797Z,2.60
2023-11-12T17:32:03.755Z,1.92
2023-11-12T17:37:05.917Z,1.95
2023-11-12T17:42:10.568Z,1.90
2023-11-12T17:47:15.193Z,2.80
2023-11-12T17:52:17.345Z,2.50
2023-11-12T17:57:21.875Z,2.42
2023-11-12T18:02:24.597Z,2.88
2023-11-12T18:07:28.746Z,2.15
2023-11-12T18:12:30.917Z,2.55
2023-11-12T18:17:33.048Z,1.85
2023-11-12T18:22:36.396Z,2.78
2023-11-12T18:27:40.591Z,1.63
2023-11-12T18:32:42.739Z,2.50
2023-11-12T18:37:46.303Z,3.28
2023-11-12T18:42:48.556Z,0.90
2023-11-12T18:47:51.582Z,0.55
2023-11-12T18:52:55.337Z,1.27
2023-11-12T19:03:01.224Z,1.05
2023-11-12T19:08:04.067Z,1.20
2023-11-12T19:13:06.253Z,1.95
2023-11-12T19:18:08.585Z,1.00
2023-11-12T19:23:11.367Z,0.80
2023-11-12T19:28:13.652Z,1.27
2023-11-12T19:33:15.829Z,1.73
2023-11-12T19:38:18.094Z,1.15
2023-11-12T19:43:21.388Z,0.85
2023-11-12T19:48:24.106Z,2.03
2023-11-12T19:53:29.907Z,1.15
2023-11-12T19:58:32.130Z,0.93
2023-11-12T20:03:34.347Z,1.33
2023-11-12T20:08:36.521Z,1.02
2023-11-12T20:13:40.307Z,1.27
2023-11-12T20:23:53.823Z,0.80
2023-11-12T20:28:56.764Z,1.95
2023-11-12T20:34:00.713Z,0.40
2023-11-12T20:39:03.690Z,1.30
2023-11-12T20:44:08.043Z,1.85
2023-11-12T20:49:10.281Z,1.20
2023-11-12T20:54:17.378Z,0.90
2023-11-12T20:59:22.872Z,1.23
2023-11-12T21:04:26.266Z,0.95
2023-11-12T21:09:28.520Z,0.93
2023-11-12T21:14:30.939Z,1.02
2023-11-12T21:19:36.094Z,2.25
2023-11-12T21:24:40.301Z,1.02
2023-11-12T21:29:42.871Z,1.42
2023-11-12T21:34:44.975Z,1.33
2023-11-12T21:39:47.159Z,1.45
2023-11-12T21:44:50.770Z,1.17
2023-11-12T21:49:53.247Z,1.70
2023-11-12T21:54:55.491Z,1.25
2023-11-12T21:59:57.678Z,1.23
2023-11-12T22:05:02.342Z,0.60
2023-11-12T22:10:06.179Z,1.30
2023-11-12T22:15:14.784Z,2.13
2023-11-12T22:20:17.336Z,1.80
2023-11-12T22:25:19.639Z,1.63
2023-11-12T22:30:23.664Z,2.80
2023-11-12T22:35:26.034Z,1.92
2023-11-12T22:40:28.217Z,0.80
2023-11-12T22:45:30.337Z,1.27
2023-11-12T22:50:33.537Z,2.17
2023-11-12T22:55:36.241Z,1.85
2023-11-12T23:00:53.223Z,1.58
2023-11-12T23:05:56.329Z,1.50
2023-11-12T23:10:59.159Z,1.10
2023-11-12T23:16:02.053Z,2.25
2023-11-12T23:21:09.534Z,1.95
2023-11-12T23:26:12.170Z,0.82
2023-11-12T23:31:14.386Z,0.80
2023-11-12T23:36:17.563Z,0.88
2023-11-12T23:41:20.059Z,1.77
2023-11-12T23:46:22.196Z,1.08
2023-11-12T23:51:24.745Z,0.65
2023-11-12T23:56:27.160Z,1.05
